メインページ
METAR-TAF:

METAR-TAF

空港 :

ジョン・F・ケネディ国際空港

ニューヨーク / JFK, ニューヨーク, アメリカ合衆国

緯度: 40-38-19N, 経度: 073-45-44W, 海抜: 3m

現時点の気象観測

当レポートは42分前の01:51(UTC)に作成
の風 14kt
気温 22°C
湿度 94%
気圧 1020 hPa
視程: 16.1km
高度1200ftの千切れ雲あり
高度15000ftの千切れ雲あり
高度25000ftの千切れ雲あり

METAR: KJFK 070151Z 09014KT 10SM BKN012 BKN150 BKN250 22/21 A3011 RMK AO2 SLP195 T02220206

時間: 22:33 (02:33 UTC)

予報

当レポートは2時間59分前の23:34(UTC)に作成
予報は07日の 00時(UTC)から 08日の 06時(UTC)まで有効
の風 8kt
視程: 10km
高度2000ftの雲はほとんどない
高度8000ftの千切れ雲あり
07日の 0500時(UTC)から
南東の風 5kt
視程: 10km
高度1500ftの雲は散在している
高度2000ftの曇り
07日の 09時(UTC)から 07日の 12時(UTC)まで一時的に
視程: 8.0km
高度900ftの曇り
07日の 1400時(UTC)から
南東の風 8kt
視程: 10km
高度3000ftの千切れ雲あり
07日の 1600時(UTC)から
南東の風 9kt
視程: 10km
高度5000ftの千切れ雲あり
確率 30%
07日の 19時(UTC)から 07日の 24時(UTC)まで
視程: 9.7km
弱いにわか雨

TAF: KJFK 062334Z 0700/0806 09008KT P6SM FEW020 BKN080 FM070500 13005KT P6SM SCT015 OVC020 TEMPO 0709/0712 5SM BR OVC009 FM071400 14008KT P6SM BKN030 FM071600 14009KT P6SM BKN050 PROB30 0719/0724 6SM -SHRA

4,000以上の空港の気象観測と天気予報(METAR報とTAF報)

利用可能な観測所は地図上に黄色い丸と赤い丸で示す。

丸の上にカーソルを重ねると観測所名を参照できる。

次にクリックすると気象観測と天気予報を参照できる。

マップの切り替え:黒色「×」印の緑ボタンをクリックして拡大、「-」印の緑ボタンをクリックして縮小、緑色の三角印をクリックして隣りの地図に切り替え


METAR-TAF: